sensor_id;sensor_type;location;lat;lon;timestamp;P1;durP1;ratioP1;P2;durP2;ratioP2
67597;SDS011;62026;39.230;9.122;2023-06-14T00:02:09;6.97;;;2.03;;
67597;SDS011;62026;39.230;9.122;2023-06-14T00:04:35;6.32;;;1.77;;
67597;SDS011;62026;39.230;9.122;2023-06-14T00:07:03;6.68;;;1.85;;
67597;SDS011;62026;39.230;9.122;2023-06-14T00:09:29;4.88;;;2.10;;
67597;SDS011;62026;39.230;9.122;2023-06-14T00:11:55;5.95;;;1.52;;
67597;SDS011;62026;39.230;9.122;2023-06-14T00:14:21;7.13;;;1.98;;
67597;SDS011;62026;39.230;9.122;2023-06-14T00:16:47;6.07;;;1.80;;
67597;SDS011;62026;39.230;9.122;2023-06-14T00:19:13;5.22;;;1.80;;
67597;SDS011;62026;39.230;9.122;2023-06-14T00:21:39;8.63;;;1.98;;
67597;SDS011;62026;39.230;9.122;2023-06-14T00:24:05;9.02;;;1.90;;
67597;SDS011;62026;39.230;9.122;2023-06-14T00:26:32;6.97;;;1.85;;
67597;SDS011;62026;39.230;9.122;2023-06-14T00:28:58;8.30;;;2.03;;
67597;SDS011;62026;39.230;9.122;2023-06-14T00:31:25;5.50;;;1.50;;
67597;SDS011;62026;39.230;9.122;2023-06-14T00:33:53;5.55;;;1.50;;
67597;SDS011;62026;39.230;9.122;2023-06-14T00:36:19;8.60;;;1.58;;
67597;SDS011;62026;39.230;9.122;2023-06-14T00:38:45;6.90;;;1.60;;
67597;SDS011;62026;39.230;9.122;2023-06-14T00:41:11;7.05;;;1.77;;
67597;SDS011;62026;39.230;9.122;2023-06-14T00:43:37;5.88;;;1.63;;
67597;SDS011;62026;39.230;9.122;2023-06-14T00:46:03;8.00;;;2.08;;
67597;SDS011;62026;39.230;9.122;2023-06-14T00:48:29;5.35;;;1.70;;
67597;SDS011;62026;39.230;9.122;2023-06-14T00:50:57;8.23;;;1.80;;
67597;SDS011;62026;39.230;9.122;2023-06-14T00:53:27;5.85;;;1.92;;
67597;SDS011;62026;39.230;9.122;2023-06-14T00:55:54;5.80;;;1.80;;
67597;SDS011;62026;39.230;9.122;2023-06-14T00:58:21;6.13;;;1.70;;
67597;SDS011;62026;39.230;9.122;2023-06-14T01:00:48;4.55;;;1.52;;
67597;SDS011;62026;39.230;9.122;2023-06-14T01:03:14;10.38;;;1.80;;
67597;SDS011;62026;39.230;9.122;2023-06-14T01:05:47;4.70;;;1.50;;
67597;SDS011;62026;39.230;9.122;2023-06-14T01:08:24;7.28;;;2.05;;
67597;SDS011;62026;39.230;9.122;2023-06-14T01:11:18;4.75;;;1.60;;
67597;SDS011;62026;39.230;9.122;2023-06-14T01:13:54;6.00;;;2.00;;
67597;SDS011;62026;39.230;9.122;2023-06-14T01:16:22;6.60;;;1.80;;
67597;SDS011;62026;39.230;9.122;2023-06-14T01:18:49;6.03;;;1.60;;
67597;SDS011;62026;39.230;9.122;2023-06-14T01:21:25;5.85;;;1.75;;
67597;SDS011;62026;39.230;9.122;2023-06-14T01:26:20;5.40;;;1.73;;
67597;SDS011;62026;39.230;9.122;2023-06-14T01:28:51;6.85;;;1.80;;
67597;SDS011;62026;39.230;9.122;2023-06-14T01:31:23;5.47;;;2.53;;
67597;SDS011;62026;39.230;9.122;2023-06-14T01:33:52;6.45;;;1.92;;
67597;SDS011;62026;39.230;9.122;2023-06-14T01:36:19;6.22;;;1.60;;
67597;SDS011;62026;39.230;9.122;2023-06-14T01:38:48;4.85;;;1.75;;
67597;SDS011;62026;39.230;9.122;2023-06-14T01:41:16;11.50;;;2.22;;
67597;SDS011;62026;39.230;9.122;2023-06-14T01:43:44;7.07;;;1.95;;
67597;SDS011;62026;39.230;9.122;2023-06-14T01:46:14;7.47;;;1.95;;
67597;SDS011;62026;39.230;9.122;2023-06-14T01:48:41;8.52;;;2.05;;
67597;SDS011;62026;39.230;9.122;2023-06-14T01:51:08;8.18;;;2.10;;
67597;SDS011;62026;39.230;9.122;2023-06-14T01:53:34;9.85;;;2.45;;
67597;SDS011;62026;39.230;9.122;2023-06-14T01:56:01;8.23;;;1.95;;
67597;SDS011;62026;39.230;9.122;2023-06-14T01:58:29;8.40;;;1.95;;
67597;SDS011;62026;39.230;9.122;2023-06-14T02:00:56;8.25;;;2.17;;
67597;SDS011;62026;39.230;9.122;2023-06-14T02:03:23;9.35;;;2.45;;
67597;SDS011;62026;39.230;9.122;2023-06-14T02:05:51;11.90;;;2.00;;
67597;SDS011;62026;39.230;9.122;2023-06-14T02:08:17;8.05;;;1.95;;
67597;SDS011;62026;39.230;9.122;2023-06-14T02:10:43;9.52;;;2.25;;
67597;SDS011;62026;39.230;9.122;2023-06-14T02:13:09;11.35;;;2.08;;
67597;SDS011;62026;39.230;9.122;2023-06-14T02:15:35;8.90;;;2.65;;
67597;SDS011;62026;39.230;9.122;2023-06-14T02:18:02;5.93;;;1.85;;
67597;SDS011;62026;39.230;9.122;2023-06-14T02:20:28;6.30;;;1.90;;
67597;SDS011;62026;39.230;9.122;2023-06-14T02:22:56;6.45;;;1.95;;
67597;SDS011;62026;39.230;9.122;2023-06-14T02:25:22;7.50;;;2.20;;
67597;SDS011;62026;39.230;9.122;2023-06-14T02:27:48;6.07;;;2.10;;
67597;SDS011;62026;39.230;9.122;2023-06-14T02:30:14;6.55;;;2.50;;
67597;SDS011;62026;39.230;9.122;2023-06-14T02:32:41;6.65;;;2.17;;
67597;SDS011;62026;39.230;9.122;2023-06-14T02:35:08;7.25;;;2.15;;
67597;SDS011;62026;39.230;9.122;2023-06-14T02:37:34;7.45;;;2.65;;
67597;SDS011;62026;39.230;9.122;2023-06-14T02:40:00;6.85;;;1.90;;
67597;SDS011;62026;39.230;9.122;2023-06-14T02:42:26;7.70;;;1.88;;
67597;SDS011;62026;39.230;9.122;2023-06-14T02:44:52;7.63;;;2.30;;
67597;SDS011;62026;39.230;9.122;2023-06-14T02:47:20;7.15;;;1.90;;
67597;SDS011;62026;39.230;9.122;2023-06-14T02:49:46;7.95;;;1.80;;
67597;SDS011;62026;39.230;9.122;2023-06-14T02:52:14;6.30;;;2.33;;
67597;SDS011;62026;39.230;9.122;2023-06-14T02:54:40;6.45;;;1.90;;
67597;SDS011;62026;39.230;9.122;2023-06-14T02:57:07;7.47;;;1.90;;
67597;SDS011;62026;39.230;9.122;2023-06-14T02:59:34;9.02;;;2.50;;
67597;SDS011;62026;39.230;9.122;2023-06-14T03:02:02;6.55;;;2.08;;
67597;SDS011;62026;39.230;9.122;2023-06-14T03:04:30;5.30;;;1.90;;
67597;SDS011;62026;39.230;9.122;2023-06-14T03:07:04;9.75;;;2.13;;
67597;SDS011;62026;39.230;9.122;2023-06-14T03:09:35;8.07;;;2.00;;
67597;SDS011;62026;39.230;9.122;2023-06-14T03:12:03;5.47;;;1.77;;
67597;SDS011;62026;39.230;9.122;2023-06-14T03:14:34;8.73;;;2.00;;
67597;SDS011;62026;39.230;9.122;2023-06-14T03:17:02;5.88;;;2.08;;
67597;SDS011;62026;39.230;9.122;2023-06-14T03:19:31;5.93;;;1.60;;
67597;SDS011;62026;39.230;9.122;2023-06-14T03:21:57;9.52;;;2.13;;
67597;SDS011;62026;39.230;9.122;2023-06-14T03:24:26;8.20;;;1.90;;
67597;SDS011;62026;39.230;9.122;2023-06-14T03:26:58;11.90;;;2.17;;
67597;SDS011;62026;39.230;9.122;2023-06-14T03:29:26;4.90;;;1.95;;
67597;SDS011;62026;39.230;9.122;2023-06-14T03:31:57;6.50;;;2.08;;
67597;SDS011;62026;39.230;9.122;2023-06-14T03:34:40;7.68;;;2.38;;
67597;SDS011;62026;39.230;9.122;2023-06-14T03:37:12;11.38;;;2.30;;
67597;SDS011;62026;39.230;9.122;2023-06-14T03:39:38;12.57;;;2.45;;
67597;SDS011;62026;39.230;9.122;2023-06-14T03:42:14;6.72;;;1.98;;
67597;SDS011;62026;39.230;9.122;2023-06-14T03:44:42;9.55;;;2.10;;
67597;SDS011;62026;39.230;9.122;2023-06-14T03:47:08;6.97;;;1.75;;
67597;SDS011;62026;39.230;9.122;2023-06-14T03:49:34;7.90;;;2.08;;
67597;SDS011;62026;39.230;9.122;2023-06-14T03:52:01;4.53;;;2.00;;
67597;SDS011;62026;39.230;9.122;2023-06-14T03:54:29;7.53;;;2.03;;
67597;SDS011;62026;39.230;9.122;2023-06-14T03:56:58;6.82;;;2.00;;
67597;SDS011;62026;39.230;9.122;2023-06-14T03:59:24;8.95;;;2.13;;
67597;SDS011;62026;39.230;9.122;2023-06-14T04:01:53;6.97;;;2.00;;
67597;SDS011;62026;39.230;9.122;2023-06-14T04:04:20;7.95;;;2.35;;
67597;SDS011;62026;39.230;9.122;2023-06-14T04:06:47;9.65;;;2.10;;
67597;SDS011;62026;39.230;9.122;2023-06-14T04:09:13;10.90;;;2.13;;
67597;SDS011;62026;39.230;9.122;2023-06-14T04:11:40;8.23;;;2.30;;
67597;SDS011;62026;39.230;9.122;2023-06-14T04:14:06;13.88;;;2.45;;
67597;SDS011;62026;39.230;9.122;2023-06-14T04:16:32;8.18;;;2.08;;
67597;SDS011;62026;39.230;9.122;2023-06-14T04:18:59;11.68;;;2.75;;
67597;SDS011;62026;39.230;9.122;2023-06-14T04:21:27;13.05;;;2.10;;
67597;SDS011;62026;39.230;9.122;2023-06-14T04:23:55;13.98;;;3.58;;
67597;SDS011;62026;39.230;9.122;2023-06-14T04:26:24;9.13;;;2.63;;
67597;SDS011;62026;39.230;9.122;2023-06-14T04:28:56;13.40;;;2.53;;
67597;SDS011;62026;39.230;9.122;2023-06-14T04:33:55;17.42;;;2.85;;
67597;SDS011;62026;39.230;9.122;2023-06-14T04:36:22;14.13;;;2.35;;
67597;SDS011;62026;39.230;9.122;2023-06-14T04:38:49;18.48;;;4.57;;
67597;SDS011;62026;39.230;9.122;2023-06-14T04:41:15;14.38;;;2.45;;
67597;SDS011;62026;39.230;9.122;2023-06-14T04:43:43;15.15;;;3.08;;
67597;SDS011;62026;39.230;9.122;2023-06-14T04:46:14;13.85;;;2.80;;
67597;SDS011;62026;39.230;9.122;2023-06-14T04:48:42;14.15;;;3.20;;
67597;SDS011;62026;39.230;9.122;2023-06-14T04:51:09;15.23;;;2.58;;
67597;SDS011;62026;39.230;9.122;2023-06-14T04:53:36;14.32;;;2.38;;
67597;SDS011;62026;39.230;9.122;2023-06-14T04:56:03;12.93;;;3.08;;
67597;SDS011;62026;39.230;9.122;2023-06-14T04:58:31;17.35;;;2.97;;
67597;SDS011;62026;39.230;9.122;2023-06-14T05:00:57;12.35;;;2.97;;
67597;SDS011;62026;39.230;9.122;2023-06-14T05:03:25;18.17;;;3.40;;
67597;SDS011;62026;39.230;9.122;2023-06-14T05:05:52;15.13;;;2.60;;
67597;SDS011;62026;39.230;9.122;2023-06-14T05:08:20;16.35;;;3.03;;
67597;SDS011;62026;39.230;9.122;2023-06-14T05:10:49;10.18;;;2.55;;
67597;SDS011;62026;39.230;9.122;2023-06-14T05:13:16;11.40;;;2.50;;
67597;SDS011;62026;39.230;9.122;2023-06-14T05:15:44;13.23;;;2.70;;
67597;SDS011;62026;39.230;9.122;2023-06-14T05:18:10;13.68;;;2.47;;
67597;SDS011;62026;39.230;9.122;2023-06-14T05:20:38;10.75;;;2.85;;
67597;SDS011;62026;39.230;9.122;2023-06-14T05:23:05;12.30;;;3.03;;
67597;SDS011;62026;39.230;9.122;2023-06-14T05:25:31;11.18;;;2.55;;
67597;SDS011;62026;39.230;9.122;2023-06-14T05:27:57;14.15;;;3.00;;
67597;SDS011;62026;39.230;9.122;2023-06-14T05:30:23;11.93;;;2.85;;
67597;SDS011;62026;39.230;9.122;2023-06-14T05:32:49;15.02;;;3.80;;
67597;SDS011;62026;39.230;9.122;2023-06-14T05:35:15;12.43;;;2.78;;
67597;SDS011;62026;39.230;9.122;2023-06-14T05:37:41;12.75;;;2.55;;
67597;SDS011;62026;39.230;9.122;2023-06-14T05:40:07;9.70;;;2.65;;
67597;SDS011;62026;39.230;9.122;2023-06-14T05:42:34;8.95;;;2.50;;
67597;SDS011;62026;39.230;9.122;2023-06-14T05:45:00;14.68;;;2.88;;
67597;SDS011;62026;39.230;9.122;2023-06-14T05:47:26;10.25;;;2.33;;
67597;SDS011;62026;39.230;9.122;2023-06-14T05:49:53;14.73;;;2.65;;
67597;SDS011;62026;39.230;9.122;2023-06-14T05:52:20;16.75;;;2.95;;
67597;SDS011;62026;39.230;9.122;2023-06-14T05:54:46;18.23;;;3.25;;
67597;SDS011;62026;39.230;9.122;2023-06-14T05:57:12;9.82;;;2.58;;
67597;SDS011;62026;39.230;9.122;2023-06-14T05:59:38;17.95;;;3.30;;
67597;SDS011;62026;39.230;9.122;2023-06-14T06:02:05;16.65;;;2.53;;
67597;SDS011;62026;39.230;9.122;2023-06-14T06:04:31;15.55;;;2.80;;
67597;SDS011;62026;39.230;9.122;2023-06-14T06:06:57;15.93;;;2.95;;
67597;SDS011;62026;39.230;9.122;2023-06-14T06:09:23;13.68;;;2.75;;
67597;SDS011;62026;39.230;9.122;2023-06-14T06:11:49;14.05;;;2.53;;
67597;SDS011;62026;39.230;9.122;2023-06-14T06:14:15;17.23;;;3.05;;
67597;SDS011;62026;39.230;9.122;2023-06-14T06:16:41;15.20;;;2.80;;
67597;SDS011;62026;39.230;9.122;2023-06-14T06:19:07;17.92;;;2.90;;
67597;SDS011;62026;39.230;9.122;2023-06-14T06:21:33;11.43;;;2.38;;
67597;SDS011;62026;39.230;9.122;2023-06-14T06:23:59;21.63;;;2.88;;
67597;SDS011;62026;39.230;9.122;2023-06-14T06:26:28;19.92;;;3.20;;
67597;SDS011;62026;39.230;9.122;2023-06-14T06:28:55;17.52;;;3.10;;
67597;SDS011;62026;39.230;9.122;2023-06-14T06:31:22;14.63;;;3.38;;
67597;SDS011;62026;39.230;9.122;2023-06-14T06:33:49;11.88;;;2.47;;
67597;SDS011;62026;39.230;9.122;2023-06-14T06:36:15;23.77;;;3.08;;
67597;SDS011;62026;39.230;9.122;2023-06-14T06:38:41;14.73;;;3.35;;
67597;SDS011;62026;39.230;9.122;2023-06-14T06:41:07;13.38;;;2.65;;
67597;SDS011;62026;39.230;9.122;2023-06-14T06:43:33;11.07;;;2.17;;
67597;SDS011;62026;39.230;9.122;2023-06-14T06:46:01;10.85;;;2.30;;
67597;SDS011;62026;39.230;9.122;2023-06-14T06:48:27;16.48;;;2.85;;
67597;SDS011;62026;39.230;9.122;2023-06-14T06:50:54;15.13;;;3.00;;
67597;SDS011;62026;39.230;9.122;2023-06-14T06:53:20;11.13;;;2.50;;
67597;SDS011;62026;39.230;9.122;2023-06-14T06:55:46;14.98;;;2.35;;
67597;SDS011;62026;39.230;9.122;2023-06-14T06:58:14;15.52;;;2.90;;
67597;SDS011;62026;39.230;9.122;2023-06-14T07:00:40;20.58;;;2.90;;
67597;SDS011;62026;39.230;9.122;2023-06-14T07:03:06;16.83;;;2.70;;
67597;SDS011;62026;39.230;9.122;2023-06-14T07:05:33;16.23;;;2.28;;
67597;SDS011;62026;39.230;9.122;2023-06-14T07:07:59;11.73;;;2.67;;
67597;SDS011;62026;39.230;9.122;2023-06-14T07:10:25;14.18;;;2.42;;
67597;SDS011;62026;39.230;9.122;2023-06-14T07:12:51;15.57;;;2.25;;
67597;SDS011;62026;39.230;9.122;2023-06-14T07:15:17;15.43;;;2.78;;
67597;SDS011;62026;39.230;9.122;2023-06-14T07:17:43;12.25;;;2.67;;
67597;SDS011;62026;39.230;9.122;2023-06-14T07:20:09;12.75;;;2.70;;
67597;SDS011;62026;39.230;9.122;2023-06-14T07:22:40;13.90;;;3.38;;
67597;SDS011;62026;39.230;9.122;2023-06-14T07:25:08;15.63;;;3.15;;
67597;SDS011;62026;39.230;9.122;2023-06-14T07:27:41;8.57;;;2.22;;
67597;SDS011;62026;39.230;9.122;2023-06-14T07:30:08;12.07;;;2.88;;
67597;SDS011;62026;39.230;9.122;2023-06-14T07:32:36;11.82;;;2.92;;
67597;SDS011;62026;39.230;9.122;2023-06-14T07:35:02;10.73;;;2.28;;
67597;SDS011;62026;39.230;9.122;2023-06-14T07:37:28;11.40;;;2.67;;
67597;SDS011;62026;39.230;9.122;2023-06-14T07:39:54;18.95;;;2.80;;
67597;SDS011;62026;39.230;9.122;2023-06-14T07:42:20;20.05;;;2.90;;
67597;SDS011;62026;39.230;9.122;2023-06-14T07:44:46;10.85;;;2.13;;
67597;SDS011;62026;39.230;9.122;2023-06-14T07:47:12;17.08;;;2.92;;
67597;SDS011;62026;39.230;9.122;2023-06-14T07:49:38;15.43;;;2.92;;
67597;SDS011;62026;39.230;9.122;2023-06-14T07:52:04;16.48;;;3.30;;
67597;SDS011;62026;39.230;9.122;2023-06-14T07:54:31;13.07;;;2.83;;
67597;SDS011;62026;39.230;9.122;2023-06-14T07:56:58;14.55;;;2.80;;
67597;SDS011;62026;39.230;9.122;2023-06-14T07:59:25;11.65;;;2.47;;
67597;SDS011;62026;39.230;9.122;2023-06-14T08:01:52;9.93;;;2.55;;
67597;SDS011;62026;39.230;9.122;2023-06-14T08:04:18;11.48;;;2.67;;
67597;SDS011;62026;39.230;9.122;2023-06-14T08:06:44;15.57;;;2.83;;
67597;SDS011;62026;39.230;9.122;2023-06-14T08:09:10;14.48;;;2.40;;
67597;SDS011;62026;39.230;9.122;2023-06-14T08:11:38;9.77;;;2.20;;
67597;SDS011;62026;39.230;9.122;2023-06-14T08:14:04;19.33;;;2.85;;
67597;SDS011;62026;39.230;9.122;2023-06-14T08:16:30;13.80;;;2.88;;
67597;SDS011;62026;39.230;9.122;2023-06-14T08:18:56;12.40;;;2.75;;
67597;SDS011;62026;39.230;9.122;2023-06-14T08:21:22;11.77;;;2.60;;
67597;SDS011;62026;39.230;9.122;2023-06-14T08:23:48;11.80;;;2.40;;
67597;SDS011;62026;39.230;9.122;2023-06-14T08:26:18;13.07;;;2.88;;
67597;SDS011;62026;39.230;9.122;2023-06-14T08:28:44;9.80;;;2.60;;
67597;SDS011;62026;39.230;9.122;2023-06-14T08:31:10;14.57;;;2.53;;
67597;SDS011;62026;39.230;9.122;2023-06-14T08:33:36;11.88;;;2.63;;
67597;SDS011;62026;39.230;9.122;2023-06-14T08:36:02;12.63;;;2.67;;
67597;SDS011;62026;39.230;9.122;2023-06-14T08:38:28;11.95;;;2.30;;
67597;SDS011;62026;39.230;9.122;2023-06-14T08:40:56;10.70;;;2.45;;
67597;SDS011;62026;39.230;9.122;2023-06-14T08:43:23;10.52;;;2.63;;
67597;SDS011;62026;39.230;9.122;2023-06-14T08:45:51;9.98;;;2.53;;
67597;SDS011;62026;39.230;9.122;2023-06-14T08:48:25;12.77;;;2.58;;
67597;SDS011;62026;39.230;9.122;2023-06-14T08:50:53;14.45;;;2.90;;
67597;SDS011;62026;39.230;9.122;2023-06-14T08:53:27;14.38;;;3.25;;
67597;SDS011;62026;39.230;9.122;2023-06-14T08:55:58;13.65;;;2.83;;
67597;SDS011;62026;39.230;9.122;2023-06-14T08:58:29;14.73;;;2.85;;
67597;SDS011;62026;39.230;9.122;2023-06-14T09:00:59;14.55;;;2.88;;
67597;SDS011;62026;39.230;9.122;2023-06-14T09:03:27;7.40;;;1.90;;
67597;SDS011;62026;39.230;9.122;2023-06-14T09:05:59;16.10;;;2.97;;
67597;SDS011;62026;39.230;9.122;2023-06-14T09:08:29;13.27;;;2.72;;
67597;SDS011;62026;39.230;9.122;2023-06-14T09:10:56;14.35;;;3.13;;
67597;SDS011;62026;39.230;9.122;2023-06-14T09:13:23;11.20;;;2.72;;
67597;SDS011;62026;39.230;9.122;2023-06-14T09:15:49;12.93;;;3.00;;
67597;SDS011;62026;39.230;9.122;2023-06-14T09:18:16;14.32;;;3.20;;
67597;SDS011;62026;39.230;9.122;2023-06-14T09:20:42;8.23;;;2.53;;
67597;SDS011;62026;39.230;9.122;2023-06-14T09:23:09;7.20;;;2.33;;
67597;SDS011;62026;39.230;9.122;2023-06-14T09:25:41;10.05;;;2.50;;
67597;SDS011;62026;39.230;9.122;2023-06-14T09:28:11;8.55;;;3.20;;
67597;SDS011;62026;39.230;9.122;2023-06-14T09:30:37;8.80;;;3.10;;
67597;SDS011;62026;39.230;9.122;2023-06-14T09:33:04;7.40;;;2.33;;
67597;SDS011;62026;39.230;9.122;2023-06-14T09:35:32;11.27;;;2.80;;
67597;SDS011;62026;39.230;9.122;2023-06-14T09:37:59;10.40;;;2.75;;
67597;SDS011;62026;39.230;9.122;2023-06-14T09:40:25;8.32;;;2.50;;
67597;SDS011;62026;39.230;9.122;2023-06-14T09:42:52;8.70;;;2.53;;
67597;SDS011;62026;39.230;9.122;2023-06-14T09:45:22;10.02;;;2.95;;
67597;SDS011;62026;39.230;9.122;2023-06-14T09:47:54;9.95;;;2.58;;
67597;SDS011;62026;39.230;9.122;2023-06-14T09:50:21;10.32;;;2.90;;
67597;SDS011;62026;39.230;9.122;2023-06-14T09:52:47;13.15;;;2.90;;
67597;SDS011;62026;39.230;9.122;2023-06-14T09:55:18;12.35;;;2.85;;
67597;SDS011;62026;39.230;9.122;2023-06-14T09:57:45;9.45;;;2.75;;
67597;SDS011;62026;39.230;9.122;2023-06-14T10:00:13;12.07;;;3.20;;
67597;SDS011;62026;39.230;9.122;2023-06-14T10:02:43;10.82;;;3.05;;
67597;SDS011;62026;39.230;9.122;2023-06-14T10:05:17;14.40;;;3.45;;
67597;SDS011;62026;39.230;9.122;2023-06-14T10:10:13;12.95;;;3.50;;
67597;SDS011;62026;39.230;9.122;2023-06-14T10:12:40;10.60;;;2.72;;
67597;SDS011;62026;39.230;9.122;2023-06-14T10:15:07;12.20;;;3.13;;
67597;SDS011;62026;39.230;9.122;2023-06-14T10:17:45;10.48;;;2.97;;
67597;SDS011;62026;39.230;9.122;2023-06-14T10:20:33;10.88;;;2.85;;
67597;SDS011;62026;39.230;9.122;2023-06-14T10:23:11;9.48;;;3.08;;
67597;SDS011;62026;39.230;9.122;2023-06-14T10:25:45;10.55;;;3.25;;
67597;SDS011;62026;39.230;9.122;2023-06-14T10:28:21;10.13;;;3.00;;
67597;SDS011;62026;39.230;9.122;2023-06-14T10:31:09;13.52;;;2.92;;
67597;SDS011;62026;39.230;9.122;2023-06-14T10:33:49;13.70;;;3.33;;
67597;SDS011;62026;39.230;9.122;2023-06-14T10:36:25;13.32;;;4.10;;
67597;SDS011;62026;39.230;9.122;2023-06-14T10:41:50;10.70;;;2.75;;
67597;SDS011;62026;39.230;9.122;2023-06-14T10:46:46;8.07;;;2.80;;
67597;SDS011;62026;39.230;9.122;2023-06-14T10:49:19;10.68;;;2.90;;
67597;SDS011;62026;39.230;9.122;2023-06-14T10:52:02;13.20;;;3.72;;
67597;SDS011;62026;39.230;9.122;2023-06-14T10:54:31;9.05;;;3.00;;
67597;SDS011;62026;39.230;9.122;2023-06-14T10:56:58;11.00;;;3.03;;
67597;SDS011;62026;39.230;9.122;2023-06-14T10:59:24;9.68;;;2.78;;
67597;SDS011;62026;39.230;9.122;2023-06-14T11:04:34;11.20;;;2.80;;
67597;SDS011;62026;39.230;9.122;2023-06-14T11:13:08;5.88;;;2.05;;
67597;SDS011;62026;39.230;9.122;2023-06-14T11:15:35;6.05;;;2.20;;
67597;SDS011;62026;39.230;9.122;2023-06-14T11:18:06;4.35;;;1.42;;
67597;SDS011;62026;39.230;9.122;2023-06-14T11:23:01;6.25;;;1.88;;
67597;SDS011;62026;39.230;9.122;2023-06-14T11:25:29;5.65;;;1.60;;
67597;SDS011;62026;39.230;9.122;2023-06-14T11:27:55;5.38;;;1.60;;
67597;SDS011;62026;39.230;9.122;2023-06-14T11:30:23;5.75;;;1.60;;
67597;SDS011;62026;39.230;9.122;2023-06-14T11:32:51;8.13;;;1.60;;
67597;SDS011;62026;39.230;9.122;2023-06-14T11:35:19;5.07;;;1.63;;
67597;SDS011;62026;39.230;9.122;2023-06-14T11:37:48;11.95;;;1.92;;
67597;SDS011;62026;39.230;9.122;2023-06-14T11:40:19;5.47;;;1.60;;
67597;SDS011;62026;39.230;9.122;2023-06-14T11:42:45;7.53;;;1.98;;
67597;SDS011;62026;39.230;9.122;2023-06-14T11:45:11;7.03;;;2.00;;
67597;SDS011;62026;39.230;9.122;2023-06-14T11:47:38;6.18;;;1.90;;
67597;SDS011;62026;39.230;9.122;2023-06-14T11:50:08;6.95;;;2.00;;
67597;SDS011;62026;39.230;9.122;2023-06-14T11:52:36;3.75;;;1.40;;
67597;SDS011;62026;39.230;9.122;2023-06-14T11:55:03;3.85;;;1.65;;
67597;SDS011;62026;39.230;9.122;2023-06-14T11:57:30;5.85;;;1.25;;
67597;SDS011;62026;39.230;9.122;2023-06-14T12:00:02;5.45;;;1.50;;
67597;SDS011;62026;39.230;9.122;2023-06-14T12:02:36;4.15;;;1.60;;
67597;SDS011;62026;39.230;9.122;2023-06-14T12:05:05;4.05;;;1.50;;
67597;SDS011;62026;39.230;9.122;2023-06-14T12:07:39;4.20;;;1.42;;
67597;SDS011;62026;39.230;9.122;2023-06-14T12:10:07;6.63;;;1.58;;
67597;SDS011;62026;39.230;9.122;2023-06-14T12:12:36;3.85;;;1.58;;
67597;SDS011;62026;39.230;9.122;2023-06-14T12:15:05;3.08;;;1.48;;
67597;SDS011;62026;39.230;9.122;2023-06-14T12:17:36;3.33;;;1.48;;
67597;SDS011;62026;39.230;9.122;2023-06-14T12:20:08;3.30;;;1.67;;
67597;SDS011;62026;39.230;9.122;2023-06-14T12:22:36;3.42;;;1.63;;
67597;SDS011;62026;39.230;9.122;2023-06-14T12:25:03;4.10;;;1.50;;
67597;SDS011;62026;39.230;9.122;2023-06-14T12:27:30;3.22;;;1.45;;
67597;SDS011;62026;39.230;9.122;2023-06-14T12:30:02;3.83;;;1.30;;
67597;SDS011;62026;39.230;9.122;2023-06-14T12:32:30;5.25;;;1.45;;
67597;SDS011;62026;39.230;9.122;2023-06-14T12:34:56;3.25;;;1.38;;
67597;SDS011;62026;39.230;9.122;2023-06-14T12:37:22;4.43;;;1.42;;
67597;SDS011;62026;39.230;9.122;2023-06-14T12:39:48;3.72;;;1.50;;
67597;SDS011;62026;39.230;9.122;2023-06-14T12:42:16;6.22;;;1.40;;
67597;SDS011;62026;39.230;9.122;2023-06-14T12:44:42;3.28;;;1.40;;
67597;SDS011;62026;39.230;9.122;2023-06-14T12:47:08;3.10;;;1.60;;
67597;SDS011;62026;39.230;9.122;2023-06-14T12:49:34;4.20;;;1.58;;
67597;SDS011;62026;39.230;9.122;2023-06-14T12:52:00;3.25;;;1.48;;
67597;SDS011;62026;39.230;9.122;2023-06-14T12:54:26;6.03;;;1.52;;
67597;SDS011;62026;39.230;9.122;2023-06-14T12:56:52;3.90;;;1.52;;
67597;SDS011;62026;39.230;9.122;2023-06-14T12:59:18;5.60;;;1.40;;
67597;SDS011;62026;39.230;9.122;2023-06-14T13:01:44;2.70;;;1.30;;
67597;SDS011;62026;39.230;9.122;2023-06-14T13:04:10;2.67;;;1.40;;
67597;SDS011;62026;39.230;9.122;2023-06-14T13:06:36;4.18;;;1.90;;
67597;SDS011;62026;39.230;9.122;2023-06-14T13:09:03;4.35;;;1.40;;
67597;SDS011;62026;39.230;9.122;2023-06-14T13:11:29;4.65;;;1.25;;
67597;SDS011;62026;39.230;9.122;2023-06-14T13:13:55;4.70;;;1.55;;
67597;SDS011;62026;39.230;9.122;2023-06-14T13:16:21;2.90;;;1.15;;
67597;SDS011;62026;39.230;9.122;2023-06-14T13:18:47;3.35;;;1.38;;
67597;SDS011;62026;39.230;9.122;2023-06-14T13:21:13;8.07;;;1.30;;
67597;SDS011;62026;39.230;9.122;2023-06-14T13:23:39;2.33;;;1.10;;
67597;SDS011;62026;39.230;9.122;2023-06-14T13:26:05;4.07;;;1.38;;
67597;SDS011;62026;39.230;9.122;2023-06-14T13:28:31;5.43;;;1.65;;
67597;SDS011;62026;39.230;9.122;2023-06-14T13:30:57;2.38;;;1.25;;
67597;SDS011;62026;39.230;9.122;2023-06-14T13:33:23;4.25;;;1.40;;
67597;SDS011;62026;39.230;9.122;2023-06-14T13:35:49;4.72;;;1.30;;
67597;SDS011;62026;39.230;9.122;2023-06-14T13:38:17;5.55;;;1.50;;
67597;SDS011;62026;39.230;9.122;2023-06-14T13:40:44;2.85;;;1.30;;
67597;SDS011;62026;39.230;9.122;2023-06-14T13:43:10;2.75;;;1.50;;
67597;SDS011;62026;39.230;9.122;2023-06-14T13:45:36;2.95;;;1.50;;
67597;SDS011;62026;39.230;9.122;2023-06-14T13:48:02;3.88;;;1.38;;
67597;SDS011;62026;39.230;9.122;2023-06-14T13:50:28;1.92;;;1.17;;
67597;SDS011;62026;39.230;9.122;2023-06-14T13:52:54;2.20;;;1.30;;
67597;SDS011;62026;39.230;9.122;2023-06-14T13:55:20;3.95;;;1.70;;
67597;SDS011;62026;39.230;9.122;2023-06-14T13:57:46;2.80;;;1.25;;
67597;SDS011;62026;39.230;9.122;2023-06-14T14:00:12;2.92;;;1.45;;
67597;SDS011;62026;39.230;9.122;2023-06-14T14:02:40;1.77;;;1.13;;
67597;SDS011;62026;39.230;9.122;2023-06-14T14:05:06;3.47;;;1.50;;
67597;SDS011;62026;39.230;9.122;2023-06-14T14:07:33;8.27;;;1.63;;
67597;SDS011;62026;39.230;9.122;2023-06-14T14:09:59;3.75;;;1.67;;
67597;SDS011;62026;39.230;9.122;2023-06-14T14:12:25;4.03;;;1.58;;
67597;SDS011;62026;39.230;9.122;2023-06-14T14:14:53;3.90;;;1.88;;
67597;SDS011;62026;39.230;9.122;2023-06-14T14:17:19;5.03;;;1.80;;
67597;SDS011;62026;39.230;9.122;2023-06-14T14:19:45;3.58;;;1.67;;
67597;SDS011;62026;39.230;9.122;2023-06-14T14:22:11;4.72;;;1.70;;
67597;SDS011;62026;39.230;9.122;2023-06-14T14:24:37;3.05;;;1.67;;
67597;SDS011;62026;39.230;9.122;2023-06-14T14:27:03;4.18;;;1.60;;
67597;SDS011;62026;39.230;9.122;2023-06-14T14:29:30;3.90;;;1.50;;
67597;SDS011;62026;39.230;9.122;2023-06-14T14:31:56;2.45;;;1.42;;
67597;SDS011;62026;39.230;9.122;2023-06-14T14:34:24;2.60;;;1.20;;
67597;SDS011;62026;39.230;9.122;2023-06-14T14:36:50;3.50;;;1.65;;
67597;SDS011;62026;39.230;9.122;2023-06-14T14:39:16;3.80;;;1.65;;
67597;SDS011;62026;39.230;9.122;2023-06-14T14:41:42;5.57;;;1.92;;
67597;SDS011;62026;39.230;9.122;2023-06-14T14:44:08;2.60;;;1.38;;
67597;SDS011;62026;39.230;9.122;2023-06-14T14:46:34;2.63;;;1.40;;
67597;SDS011;62026;39.230;9.122;2023-06-14T14:49:00;4.43;;;1.73;;
67597;SDS011;62026;39.230;9.122;2023-06-14T14:51:26;1.85;;;1.15;;
67597;SDS011;62026;39.230;9.122;2023-06-14T14:53:52;2.97;;;1.48;;
67597;SDS011;62026;39.230;9.122;2023-06-14T14:56:18;3.00;;;1.38;;
67597;SDS011;62026;39.230;9.122;2023-06-14T14:58:44;2.63;;;1.45;;
67597;SDS011;62026;39.230;9.122;2023-06-14T15:01:10;3.00;;;1.42;;
67597;SDS011;62026;39.230;9.122;2023-06-14T15:03:36;3.70;;;1.55;;
67597;SDS011;62026;39.230;9.122;2023-06-14T15:06:02;2.67;;;1.42;;
67597;SDS011;62026;39.230;9.122;2023-06-14T15:08:28;6.22;;;1.65;;
67597;SDS011;62026;39.230;9.122;2023-06-14T15:10:54;5.07;;;2.20;;